sensor_id;sensor_type;location;lat;lon;timestamp;pressure;altitude;pressure_sealevel;temperature;humidity
15444;BME280;7822;48.146;11.576;2022-09-03T00:02:13;95206.50;;;18.38;52.90
15444;BME280;7822;48.146;11.576;2022-09-03T00:04:50;95207.78;;;18.42;53.09
15444;BME280;7822;48.146;11.576;2022-09-03T00:07:27;95203.50;;;18.49;52.64
15444;BME280;7822;48.146;11.576;2022-09-03T00:10:02;95207.22;;;18.63;51.92
15444;BME280;7822;48.146;11.576;2022-09-03T00:12:32;95205.72;;;18.69;52.04
15444;BME280;7822;48.146;11.576;2022-09-03T00:15:06;95205.75;;;18.61;52.06
15444;BME280;7822;48.146;11.576;2022-09-03T00:17:38;95209.88;;;18.55;52.46
15444;BME280;7822;48.146;11.576;2022-09-03T00:20:11;95206.41;;;18.63;52.02
15444;BME280;7822;48.146;11.576;2022-09-03T00:22:44;95206.41;;;18.63;52.21
15444;BME280;7822;48.146;11.576;2022-09-03T00:25:17;95210.25;;;18.52;52.23
15444;BME280;7822;48.146;11.576;2022-09-03T00:27:53;95208.78;;;18.41;52.50
15444;BME280;7822;48.146;11.576;2022-09-03T00:30:22;95203.41;;;18.35;52.72
15444;BME280;7822;48.146;11.576;2022-09-03T00:32:56;95204.03;;;18.37;52.80
15444;BME280;7822;48.146;11.576;2022-09-03T00:35:29;95202.72;;;18.33;52.99
15444;BME280;7822;48.146;11.576;2022-09-03T00:37:59;95198.00;;;18.28;52.56
15444;BME280;7822;48.146;11.576;2022-09-03T00:40:47;95192.88;;;18.35;52.99
15444;BME280;7822;48.146;11.576;2022-09-03T00:43:27;95192.88;;;18.35;53.07
15444;BME280;7822;48.146;11.576;2022-09-03T00:46:05;95185.22;;;18.25;53.29
15444;BME280;7822;48.146;11.576;2022-09-03T00:48:49;95188.66;;;18.18;53.56
15444;BME280;7822;48.146;11.576;2022-09-03T00:51:25;95196.25;;;18.13;53.75
15444;BME280;7822;48.146;11.576;2022-09-03T00:54:02;95192.97;;;18.11;54.02
15444;BME280;7822;48.146;11.576;2022-09-03T00:56:37;95197.72;;;18.07;54.14
15444;BME280;7822;48.146;11.576;2022-09-03T00:59:18;95196.75;;;18.08;54.36
15444;BME280;7822;48.146;11.576;2022-09-03T01:01:57;95199.53;;;18.07;54.18
15444;BME280;7822;48.146;11.576;2022-09-03T01:04:40;95205.13;;;18.04;54.52
15444;BME280;7822;48.146;11.576;2022-09-03T01:07:21;95202.34;;;18.05;54.84
15444;BME280;7822;48.146;11.576;2022-09-03T01:09:55;95200.19;;;18.17;54.65
15444;BME280;7822;48.146;11.576;2022-09-03T01:12:35;95198.16;;;18.35;54.33
15444;BME280;7822;48.146;11.576;2022-09-03T01:15:15;95202.25;;;18.29;54.07
15444;BME280;7822;48.146;11.576;2022-09-03T01:17:55;95193.72;;;18.27;53.97
15444;BME280;7822;48.146;11.576;2022-09-03T01:21:03;95195.41;;;18.20;54.16
15444;BME280;7822;48.146;11.576;2022-09-03T01:28:18;95201.50;;;18.05;54.79
15444;BME280;7822;48.146;11.576;2022-09-03T01:30:54;95205.16;;;17.96;54.86
15444;BME280;7822;48.146;11.576;2022-09-03T01:33:27;95199.91;;;17.96;54.93
15444;BME280;7822;48.146;11.576;2022-09-03T01:36:05;95195.78;;;18.01;54.88
15444;BME280;7822;48.146;11.576;2022-09-03T01:38:40;95199.38;;;18.00;54.57
15444;BME280;7822;48.146;11.576;2022-09-03T01:41:16;95198.28;;;17.95;54.98
15444;BME280;7822;48.146;11.576;2022-09-03T01:44:13;95196.28;;;17.97;54.85
15444;BME280;7822;48.146;11.576;2022-09-03T01:46:45;95192.19;;;17.94;54.85
15444;BME280;7822;48.146;11.576;2022-09-03T01:49:18;95188.94;;;17.84;55.20
15444;BME280;7822;48.146;11.576;2022-09-03T01:51:54;95192.41;;;17.76;55.65
15444;BME280;7822;48.146;11.576;2022-09-03T01:54:42;95196.34;;;17.72;55.78
15444;BME280;7822;48.146;11.576;2022-09-03T01:57:32;95191.94;;;17.65;56.10
15444;BME280;7822;48.146;11.576;2022-09-03T02:00:06;95191.78;;;17.66;56.27
15444;BME280;7822;48.146;11.576;2022-09-03T02:02:35;95192.28;;;17.62;56.44
15444;BME280;7822;48.146;11.576;2022-09-03T02:05:07;95184.41;;;17.62;56.23
15444;BME280;7822;48.146;11.576;2022-09-03T02:07:37;95183.09;;;17.58;56.37
15444;BME280;7822;48.146;11.576;2022-09-03T02:10:08;95179.81;;;17.56;56.64
15444;BME280;7822;48.146;11.576;2022-09-03T02:12:38;95174.06;;;17.44;56.98
15444;BME280;7822;48.146;11.576;2022-09-03T02:15:12;95175.38;;;17.40;56.97
15444;BME280;7822;48.146;11.576;2022-09-03T02:17:41;95180.63;;;17.48;56.74
15444;BME280;7822;48.146;11.576;2022-09-03T02:20:15;95166.50;;;17.49;56.60
15444;BME280;7822;48.146;11.576;2022-09-03T02:22:46;95170.13;;;17.56;56.71
15444;BME280;7822;48.146;11.576;2022-09-03T02:25:15;95183.44;;;17.55;56.75
15444;BME280;7822;48.146;11.576;2022-09-03T02:27:44;95181.94;;;17.52;56.87
15444;BME280;7822;48.146;11.576;2022-09-03T02:30:14;95191.91;;;17.41;57.08
15444;BME280;7822;48.146;11.576;2022-09-03T02:32:43;95190.94;;;17.34;57.52
15444;BME280;7822;48.146;11.576;2022-09-03T02:35:10;95191.91;;;17.41;57.49
15444;BME280;7822;48.146;11.576;2022-09-03T02:37:38;95195.53;;;17.40;57.53
15444;BME280;7822;48.146;11.576;2022-09-03T02:40:07;95189.28;;;17.41;57.17
15444;BME280;7822;48.146;11.576;2022-09-03T02:42:35;95192.75;;;17.41;57.06
15444;BME280;7822;48.146;11.576;2022-09-03T02:45:13;95191.28;;;17.39;57.39
15444;BME280;7822;48.146;11.576;2022-09-03T02:47:44;95195.69;;;17.38;57.19
15444;BME280;7822;48.146;11.576;2022-09-03T02:50:15;95190.09;;;17.49;56.79
15444;BME280;7822;48.146;11.576;2022-09-03T02:52:43;95190.66;;;17.53;56.69
15444;BME280;7822;48.146;11.576;2022-09-03T02:55:11;95193.56;;;17.50;56.89
15444;BME280;7822;48.146;11.576;2022-09-03T02:57:39;95199.00;;;17.40;57.19
15444;BME280;7822;48.146;11.576;2022-09-03T03:00:08;95192.09;;;17.39;57.36
15444;BME280;7822;48.146;11.576;2022-09-03T03:02:36;95193.06;;;17.38;57.15
15444;BME280;7822;48.146;11.576;2022-09-03T03:05:06;95179.13;;;17.46;57.01
15444;BME280;7822;48.146;11.576;2022-09-03T03:07:36;95182.09;;;17.43;57.09
15444;BME280;7822;48.146;11.576;2022-09-03T03:10:06;95186.19;;;17.45;57.03
15444;BME280;7822;48.146;11.576;2022-09-03T03:12:34;95185.53;;;17.35;57.37
15444;BME280;7822;48.146;11.576;2022-09-03T03:15:03;95178.50;;;17.36;57.45
15444;BME280;7822;48.146;11.576;2022-09-03T03:17:30;95180.13;;;17.37;57.28
15444;BME280;7822;48.146;11.576;2022-09-03T03:19:58;95184.91;;;17.33;57.58
15444;BME280;7822;48.146;11.576;2022-09-03T03:22:27;95184.38;;;17.30;57.82
15444;BME280;7822;48.146;11.576;2022-09-03T03:24:55;95183.91;;;17.26;57.70
15444;BME280;7822;48.146;11.576;2022-09-03T03:27:23;95184.88;;;17.25;57.79
15444;BME280;7822;48.146;11.576;2022-09-03T03:29:51;95187.34;;;17.27;57.12
15444;BME280;7822;48.146;11.576;2022-09-03T03:32:20;95187.34;;;17.19;58.13
15444;BME280;7822;48.146;11.576;2022-09-03T03:34:47;95189.63;;;17.22;58.11
15444;BME280;7822;48.146;11.576;2022-09-03T03:37:15;95188.50;;;17.24;58.05
15444;BME280;7822;48.146;11.576;2022-09-03T03:39:44;95194.88;;;17.30;57.76
15444;BME280;7822;48.146;11.576;2022-09-03T03:42:12;95194.22;;;17.28;57.94
15444;BME280;7822;48.146;11.576;2022-09-03T03:44:40;95198.63;;;17.27;57.76
15444;BME280;7822;48.146;11.576;2022-09-03T03:47:09;95204.06;;;17.26;58.17
15444;BME280;7822;48.146;11.576;2022-09-03T03:49:37;95206.19;;;17.22;58.26
15444;BME280;7822;48.146;11.576;2022-09-03T03:52:05;95203.06;;;17.19;58.27
15444;BME280;7822;48.146;11.576;2022-09-03T03:54:33;95205.69;;;17.19;58.30
15444;BME280;7822;48.146;11.576;2022-09-03T03:57:02;95204.88;;;17.18;58.36
15444;BME280;7822;48.146;11.576;2022-09-03T03:59:30;95202.09;;;17.20;58.18
15444;BME280;7822;48.146;11.576;2022-09-03T04:01:58;95188.81;;;17.21;58.33
15444;BME280;7822;48.146;11.576;2022-09-03T04:04:25;95188.84;;;17.29;57.94
15444;BME280;7822;48.146;11.576;2022-09-03T04:06:53;95186.06;;;17.23;58.06
15444;BME280;7822;48.146;11.576;2022-09-03T04:09:21;95178.16;;;17.15;58.35
15444;BME280;7822;48.146;11.576;2022-09-03T04:11:49;95189.47;;;17.15;58.39
15444;BME280;7822;48.146;11.576;2022-09-03T04:14:18;95186.69;;;17.09;58.82
15444;BME280;7822;48.146;11.576;2022-09-03T04:16:46;95181.78;;;16.97;58.70
15444;BME280;7822;48.146;11.576;2022-09-03T04:19:13;95190.91;;;16.85;59.79
15444;BME280;7822;48.146;11.576;2022-09-03T04:21:41;95189.63;;;16.97;59.16
15444;BME280;7822;48.146;11.576;2022-09-03T04:24:09;95191.28;;;17.07;58.67
15444;BME280;7822;48.146;11.576;2022-09-03T04:26:39;95196.03;;;17.19;58.31
15444;BME280;7822;48.146;11.576;2022-09-03T04:29:08;95194.91;;;17.38;57.67
15444;BME280;7822;48.146;11.576;2022-09-03T04:31:38;95196.03;;;17.51;57.57
15444;BME280;7822;48.146;11.576;2022-09-03T04:34:26;95191.44;;;17.61;56.78
15444;BME280;7822;48.146;11.576;2022-09-03T04:36:53;95183.25;;;17.64;56.75
15444;BME280;7822;48.146;11.576;2022-09-03T04:39:23;95194.53;;;17.65;56.99
15444;BME280;7822;48.146;11.576;2022-09-03T04:41:51;95194.69;;;17.80;56.42
15444;BME280;7822;48.146;11.576;2022-09-03T04:44:19;95202.25;;;17.74;56.19
15444;BME280;7822;48.146;11.576;2022-09-03T04:46:48;95200.66;;;17.57;56.81
15444;BME280;7822;48.146;11.576;2022-09-03T04:49:16;95206.84;;;17.40;57.51
15444;BME280;7822;48.146;11.576;2022-09-03T04:51:43;95214.22;;;17.29;58.24
15444;BME280;7822;48.146;11.576;2022-09-03T04:54:12;95206.34;;;17.21;58.30
15444;BME280;7822;48.146;11.576;2022-09-03T04:56:40;95212.25;;;17.15;58.46
15444;BME280;7822;48.146;11.576;2022-09-03T04:59:08;95221.25;;;17.12;59.00
15444;BME280;7822;48.146;11.576;2022-09-03T05:01:37;95218.97;;;17.09;58.85
15444;BME280;7822;48.146;11.576;2022-09-03T05:04:07;95223.56;;;17.07;59.02
15444;BME280;7822;48.146;11.576;2022-09-03T05:06:35;95230.78;;;17.13;58.56
15444;BME280;7822;48.146;11.576;2022-09-03T05:09:04;95222.91;;;17.13;58.91
15444;BME280;7822;48.146;11.576;2022-09-03T05:11:32;95223.06;;;17.12;59.12
15444;BME280;7822;48.146;11.576;2022-09-03T05:14:00;95219.97;;;17.24;58.22
15444;BME280;7822;48.146;11.576;2022-09-03T05:16:28;95233.22;;;17.07;59.07
15444;BME280;7822;48.146;11.576;2022-09-03T05:18:58;95223.38;;;17.00;59.18
15444;BME280;7822;48.146;11.576;2022-09-03T05:21:28;95227.31;;;17.04;59.29
15444;BME280;7822;48.146;11.576;2022-09-03T05:23:58;95227.97;;;17.07;59.02
15444;BME280;7822;48.146;11.576;2022-09-03T05:26:32;95235.19;;;17.13;58.84
15444;BME280;7822;48.146;11.576;2022-09-03T05:29:06;95253.72;;;17.35;58.14
15444;BME280;7822;48.146;11.576;2022-09-03T05:31:36;95252.25;;;17.25;58.65
15444;BME280;7822;48.146;11.576;2022-09-03T05:34:05;95269.44;;;17.27;58.38
15444;BME280;7822;48.146;11.576;2022-09-03T05:36:49;95264.75;;;17.55;57.87
15444;BME280;7822;48.146;11.576;2022-09-03T05:39:18;95275.22;;;17.47;58.13
15444;BME280;7822;48.146;11.576;2022-09-03T05:41:53;95276.00;;;17.39;58.88
15444;BME280;7822;48.146;11.576;2022-09-03T05:44:20;95267.31;;;17.31;58.90
15444;BME280;7822;48.146;11.576;2022-09-03T05:46:49;95269.13;;;17.30;59.07
15444;BME280;7822;48.146;11.576;2022-09-03T05:49:18;95266.31;;;17.16;59.75
15444;BME280;7822;48.146;11.576;2022-09-03T05:51:46;95263.19;;;17.12;59.55
15444;BME280;7822;48.146;11.576;2022-09-03T05:54:16;95269.25;;;17.13;59.61
15444;BME280;7822;48.146;11.576;2022-09-03T05:56:44;95269.59;;;17.18;59.61
15444;BME280;7822;48.146;11.576;2022-09-03T05:59:12;95257.16;;;17.28;59.26
15444;BME280;7822;48.146;11.576;2022-09-03T06:01:42;95265.34;;;17.33;59.21
15444;BME280;7822;48.146;11.576;2022-09-03T06:04:18;95267.31;;;17.31;59.21
15444;BME280;7822;48.146;11.576;2022-09-03T06:06:46;95278.50;;;17.57;58.35
15444;BME280;7822;48.146;11.576;2022-09-03T06:09:17;95277.84;;;17.63;58.09
15444;BME280;7822;48.146;11.576;2022-09-03T06:11:46;95270.63;;;17.81;57.72
15444;BME280;7822;48.146;11.576;2022-09-03T06:14:15;95269.97;;;17.87;57.00
15444;BME280;7822;48.146;11.576;2022-09-03T06:16:44;95260.91;;;18.06;57.01
15444;BME280;7822;48.146;11.576;2022-09-03T06:19:15;95258.97;;;17.92;57.38
15444;BME280;7822;48.146;11.576;2022-09-03T06:21:44;95267.03;;;17.82;57.71
15444;BME280;7822;48.146;11.576;2022-09-03T06:24:17;95259.16;;;17.74;58.03
15444;BME280;7822;48.146;11.576;2022-09-03T06:26:45;95272.13;;;17.75;57.82
15444;BME280;7822;48.146;11.576;2022-09-03T06:29:14;95261.84;;;18.29;57.03
15444;BME280;7822;48.146;11.576;2022-09-03T06:31:42;95272.19;;;18.30;56.54
15444;BME280;7822;48.146;11.576;2022-09-03T06:34:10;95272.03;;;18.24;56.90
15444;BME280;7822;48.146;11.576;2022-09-03T06:36:38;95267.66;;;18.08;57.43
15444;BME280;7822;48.146;11.576;2022-09-03T06:39:06;95269.47;;;18.00;57.45
15444;BME280;7822;48.146;11.576;2022-09-03T06:41:35;95278.78;;;18.02;57.52
15444;BME280;7822;48.146;11.576;2022-09-03T06:44:05;95284.03;;;18.02;58.09
15444;BME280;7822;48.146;11.576;2022-09-03T06:46:38;95273.22;;;18.05;57.22
15444;BME280;7822;48.146;11.576;2022-09-03T06:49:08;95290.47;;;18.00;57.95
15444;BME280;7822;48.146;11.576;2022-09-03T06:51:37;95289.63;;;18.07;57.60
15444;BME280;7822;48.146;11.576;2022-09-03T06:54:07;95293.50;;;18.52;56.79
15444;BME280;7822;48.146;11.576;2022-09-03T06:56:39;95298.09;;;18.49;56.51
15444;BME280;7822;48.146;11.576;2022-09-03T06:59:08;95296.81;;;18.84;56.31
15444;BME280;7822;48.146;11.576;2022-09-03T07:01:37;95301.09;;;18.77;55.87
15444;BME280;7822;48.146;11.576;2022-09-03T07:04:10;95299.16;;;18.71;56.17
15444;BME280;7822;48.146;11.576;2022-09-03T07:06:40;95300.97;;;18.71;56.11
15444;BME280;7822;48.146;11.576;2022-09-03T07:09:10;95299.47;;;18.76;56.24
15444;BME280;7822;48.146;11.576;2022-09-03T07:11:39;95290.84;;;18.90;56.20
15444;BME280;7822;48.146;11.576;2022-09-03T07:14:14;95300.91;;;18.87;56.32
15444;BME280;7822;48.146;11.576;2022-09-03T07:16:42;95294.00;;;18.86;56.35
15444;BME280;7822;48.146;11.576;2022-09-03T07:19:11;95300.53;;;18.98;56.39
15444;BME280;7822;48.146;11.576;2022-09-03T07:21:41;95305.59;;;18.99;57.04
15444;BME280;7822;48.146;11.576;2022-09-03T07:24:15;95304.41;;;19.10;56.85
15444;BME280;7822;48.146;11.576;2022-09-03T07:26:44;95308.22;;;18.99;56.73
15444;BME280;7822;48.146;11.576;2022-09-03T07:29:14;95307.13;;;18.94;57.44
15444;BME280;7822;48.146;11.576;2022-09-03T07:31:45;95309.88;;;19.00;57.32
15444;BME280;7822;48.146;11.576;2022-09-03T07:34:14;95300.72;;;18.88;57.29
15444;BME280;7822;48.146;11.576;2022-09-03T07:36:43;95307.53;;;18.75;57.03
15444;BME280;7822;48.146;11.576;2022-09-03T07:39:14;95310.44;;;18.88;57.59
15444;BME280;7822;48.146;11.576;2022-09-03T07:41:45;95307.31;;;18.92;57.41
15444;BME280;7822;48.146;11.576;2022-09-03T07:44:15;95304.13;;;18.97;57.09
15444;BME280;7822;48.146;11.576;2022-09-03T07:46:45;95305.66;;;18.91;57.60
15444;BME280;7822;48.146;11.576;2022-09-03T07:49:13;95303.06;;;18.83;57.98
15444;BME280;7822;48.146;11.576;2022-09-03T07:51:41;95309.22;;;18.60;59.09
15444;BME280;7822;48.146;11.576;2022-09-03T07:54:09;95308.09;;;18.54;59.24
15444;BME280;7822;48.146;11.576;2022-09-03T07:56:38;95307.53;;;18.75;59.21
15444;BME280;7822;48.146;11.576;2022-09-03T07:59:11;95309.56;;;18.95;59.24
15444;BME280;7822;48.146;11.576;2022-09-03T08:01:41;95308.31;;;18.83;59.19
15444;BME280;7822;48.146;11.576;2022-09-03T08:04:09;95316.09;;;19.07;59.72
15444;BME280;7822;48.146;11.576;2022-09-03T08:06:40;95318.97;;;19.20;60.12
15444;BME280;7822;48.146;11.576;2022-09-03T08:09:10;95321.94;;;19.17;60.01
15444;BME280;7822;48.146;11.576;2022-09-03T08:11:40;95318.63;;;19.23;60.56
15444;BME280;7822;48.146;11.576;2022-09-03T08:14:13;95323.59;;;19.18;60.82
15444;BME280;7822;48.146;11.576;2022-09-03T08:16:43;95324.13;;;19.14;61.02
15444;BME280;7822;48.146;11.576;2022-09-03T08:19:11;95325.09;;;19.13;61.53
15444;BME280;7822;48.146;11.576;2022-09-03T08:21:43;95317.56;;;19.10;61.58
15444;BME280;7822;48.146;11.576;2022-09-03T08:24:13;95310.66;;;19.09;61.58
15444;BME280;7822;48.146;11.576;2022-09-03T08:26:41;95320.00;;;19.11;61.95
15444;BME280;7822;48.146;11.576;2022-09-03T08:29:19;95321.44;;;19.22;62.54
15444;BME280;7822;48.146;11.576;2022-09-03T08:31:48;95318.16;;;19.20;62.33
15444;BME280;7822;48.146;11.576;2022-09-03T08:34:16;95325.41;;;19.18;62.22
15444;BME280;7822;48.146;11.576;2022-09-03T08:36:45;95322.25;;;19.22;62.42
15444;BME280;7822;48.146;11.576;2022-09-03T08:39:13;95320.03;;;19.03;62.78
15444;BME280;7822;48.146;11.576;2022-09-03T08:41:56;95324.25;;;19.12;61.42
15444;BME280;7822;48.146;11.576;2022-09-03T08:44:30;95317.06;;;19.06;61.79
15444;BME280;7822;48.146;11.576;2022-09-03T08:47:05;95320.00;;;19.11;63.65
15444;BME280;7822;48.146;11.576;2022-09-03T08:49:43;95322.91;;;19.24;62.79
15444;BME280;7822;48.146;11.576;2022-09-03T08:52:20;95314.31;;;19.31;62.32
15444;BME280;7822;48.146;11.576;2022-09-03T08:54:54;95313.19;;;19.56;63.17
15444;BME280;7822;48.146;11.576;2022-09-03T08:57:24;95307.44;;;19.52;63.19
15444;BME280;7822;48.146;11.576;2022-09-03T08:59:54;95304.41;;;19.63;63.25
15444;BME280;7822;48.146;11.576;2022-09-03T09:02:26;95304.41;;;19.63;62.75
15444;BME280;7822;48.146;11.576;2022-09-03T09:05:04;95315.16;;;19.76;63.03
15444;BME280;7822;48.146;11.576;2022-09-03T09:07:46;95304.38;;;19.71;62.26
15444;BME280;7822;48.146;11.576;2022-09-03T09:10:21;95301.44;;;19.89;63.13
15444;BME280;7822;48.146;11.576;2022-09-03T09:13:01;95300.47;;;20.05;62.94
15444;BME280;7822;48.146;11.576;2022-09-03T09:15:39;95296.56;;;20.15;62.73
15444;BME280;7822;48.146;11.576;2022-09-03T09:18:13;95292.56;;;20.05;61.86
15444;BME280;7822;48.146;11.576;2022-09-03T09:20:48;95295.69;;;20.23;62.45
15444;BME280;7822;48.146;11.576;2022-09-03T09:23:19;95291.25;;;20.23;61.92
15444;BME280;7822;48.146;11.576;2022-09-03T09:25:53;95283.53;;;20.36;61.99
15444;BME280;7822;48.146;11.576;2022-09-03T09:28:23;95288.56;;;20.46;61.58
15444;BME280;7822;48.146;11.576;2022-09-03T09:30:54;95289.09;;;20.56;60.72
15444;BME280;7822;48.146;11.576;2022-09-03T09:33:28;95287.47;;;20.55;60.36
15444;BME280;7822;48.146;11.576;2022-09-03T09:36:01;95286.53;;;20.62;60.70
15444;BME280;7822;48.146;11.576;2022-09-03T09:38:31;95284.19;;;20.67;60.33
15444;BME280;7822;48.146;11.576;2022-09-03T09:41:12;95279.53;;;20.69;60.69
15444;BME280;7822;48.146;11.576;2022-09-03T09:43:41;95280.16;;;20.72;60.44
15444;BME280;7822;48.146;11.576;2022-09-03T09:46:12;95277.25;;;20.81;59.59
15444;BME280;7822;48.146;11.576;2022-09-03T09:48:48;95280.81;;;20.74;58.75
15444;BME280;7822;48.146;11.576;2022-09-03T09:51:19;95278.63;;;20.77;59.59
15444;BME280;7822;48.146;11.576;2022-09-03T09:53:59;95287.22;;;21.00;60.17
15444;BME280;7822;48.146;11.576;2022-09-03T09:56:27;95286.72;;;20.90;60.64
15444;BME280;7822;48.146;11.576;2022-09-03T09:59:02;95289.81;;;20.79;60.09
15444;BME280;7822;48.146;11.576;2022-09-03T10:01:31;95278.59;;;20.92;59.96
15444;BME280;7822;48.146;11.576;2022-09-03T10:04:07;95282.53;;;21.10;59.71
15444;BME280;7822;48.146;11.576;2022-09-03T10:06:36;95278.75;;;21.19;59.10
15444;BME280;7822;48.146;11.576;2022-09-03T10:09:24;95277.56;;;21.22;59.83
15444;BME280;7822;48.146;11.576;2022-09-03T10:12:05;95283.28;;;21.25;59.58
15444;BME280;7822;48.146;11.576;2022-09-03T10:14:43;95276.56;;;21.23;58.64
15444;BME280;7822;48.146;11.576;2022-09-03T10:17:17;95277.00;;;21.26;58.15
15444;BME280;7822;48.146;11.576;2022-09-03T10:20:06;95275.94;;;21.21;58.22
15444;BME280;7822;48.146;11.576;2022-09-03T10:23:00;95284.09;;;21.26;57.91
15444;BME280;7822;48.146;11.576;2022-09-03T10:25:37;95285.88;;;21.19;58.19
15444;BME280;7822;48.146;11.576;2022-09-03T10:28:07;95283.59;;;21.16;58.42
15444;BME280;7822;48.146;11.576;2022-09-03T10:30:52;95279.94;;;21.02;58.83
15444;BME280;7822;48.146;11.576;2022-09-03T10:33:28;95274.03;;;21.00;58.87
15444;BME280;7822;48.146;11.576;2022-09-03T10:36:05;95286.59;;;20.98;59.21
15444;BME280;7822;48.146;11.576;2022-09-03T10:38:37;95278.69;;;20.98;59.08
15444;BME280;7822;48.146;11.576;2022-09-03T10:41:14;95283.38;;;21.53;56.64
15444;BME280;7822;48.146;11.576;2022-09-03T10:44:05;95284.94;;;21.69;55.44
15444;BME280;7822;48.146;11.576;2022-09-03T10:46:45;95273.19;;;21.71;55.50
15444;BME280;7822;48.146;11.576;2022-09-03T10:49:26;95272.50;;;21.63;55.90
15444;BME280;7822;48.146;11.576;2022-09-03T10:52:02;95255.34;;;21.52;56.30
15444;BME280;7822;48.146;11.576;2022-09-03T10:54:43;95256.28;;;21.45;56.77
15444;BME280;7822;48.146;11.576;2022-09-03T10:57:25;95260.19;;;21.49;56.73
15444;BME280;7822;48.146;11.576;2022-09-03T11:00:02;95256.28;;;21.45;57.09
15444;BME280;7822;48.146;11.576;2022-09-03T11:05:39;95244.84;;;22.07;55.30
15444;BME280;7822;48.146;11.576;2022-09-03T11:08:12;95252.41;;;22.10;55.47
15444;BME280;7822;48.146;11.576;2022-09-03T11:10:44;95260.31;;;22.10;55.26
15444;BME280;7822;48.146;11.576;2022-09-03T11:13:20;95256.53;;;21.92;55.69
15444;BME280;7822;48.146;11.576;2022-09-03T11:15:51;95247.69;;;22.06;54.81
15444;BME280;7822;48.146;11.576;2022-09-03T11:18:23;95246.66;;;22.00;54.30
15444;BME280;7822;48.146;11.576;2022-09-03T11:20:57;95245.94;;;21.85;54.94
15444;BME280;7822;48.146;11.576;2022-09-03T11:23:37;95237.09;;;21.78;55.13
15444;BME280;7822;48.146;11.576;2022-09-03T11:26:09;95231.56;;;21.73;55.15
15444;BME280;7822;48.146;11.576;2022-09-03T11:28:42;95226.84;;;21.69;55.60
15444;BME280;7822;48.146;11.576;2022-09-03T11:31:17;95227.88;;;21.68;55.62
15444;BME280;7822;48.146;11.576;2022-09-03T11:33:58;95224.97;;;21.84;55.12
15444;BME280;7822;48.146;11.576;2022-09-03T11:36:31;95227.53;;;21.77;55.42
15444;BME280;7822;48.146;11.576;2022-09-03T11:38:59;95227.53;;;21.77;55.62
15444;BME280;7822;48.146;11.576;2022-09-03T11:41:32;95233.63;;;21.78;55.90
15444;BME280;7822;48.146;11.576;2022-09-03T11:44:15;95228.16;;;21.79;55.89
15444;BME280;7822;48.146;11.576;2022-09-03T11:46:53;95230.63;;;21.81;55.60
15444;BME280;7822;48.146;11.576;2022-09-03T11:49:28;95237.53;;;21.82;56.09
15444;BME280;7822;48.146;11.576;2022-09-03T11:52:01;95220.84;;;21.81;55.95
15444;BME280;7822;48.146;11.576;2022-09-03T11:54:31;95211.84;;;21.97;55.41
15444;BME280;7822;48.146;11.576;2022-09-03T11:57:06;95215.94;;;21.99;55.29
15444;BME280;7822;48.146;11.576;2022-09-03T11:59:37;95220.19;;;21.94;55.31
15444;BME280;7822;48.146;11.576;2022-09-03T12:05:12;95212.78;;;21.83;55.53
15444;BME280;7822;48.146;11.576;2022-09-03T12:07:52;95207.50;;;21.83;55.62
15444;BME280;7822;48.146;11.576;2022-09-03T12:10:31;95202.34;;;21.81;55.77
15444;BME280;7822;48.146;11.576;2022-09-03T12:13:16;95202.81;;;22.12;54.78
15444;BME280;7822;48.146;11.576;2022-09-03T12:16:11;95204.53;;;22.27;54.59
15444;BME280;7822;48.146;11.576;2022-09-03T12:18:41;95205.25;;;22.14;54.86
15444;BME280;7822;48.146;11.576;2022-09-03T12:21:11;95204.00;;;22.10;54.76
15444;BME280;7822;48.146;11.576;2022-09-03T12:23:43;95207.06;;;22.07;55.32
15444;BME280;7822;48.146;11.576;2022-09-03T12:26:13;95202.59;;;22.14;54.60
15444;BME280;7822;48.146;11.576;2022-09-03T12:28:43;95204.38;;;22.00;55.08
15444;BME280;7822;48.146;11.576;2022-09-03T12:31:15;95203.56;;;22.00;55.17
15444;BME280;7822;48.146;11.576;2022-09-03T12:33:52;95199.06;;;21.94;55.56
15444;BME280;7822;48.146;11.576;2022-09-03T12:36:20;95194.34;;;21.89;55.60
15444;BME280;7822;48.146;11.576;2022-09-03T12:38:50;95193.22;;;22.05;55.08
15444;BME280;7822;48.146;11.576;2022-09-03T12:41:38;95193.69;;;22.15;54.77
15444;BME280;7822;48.146;11.576;2022-09-03T12:44:09;95185.63;;;22.30;54.16
15444;BME280;7822;48.146;11.576;2022-09-03T12:46:37;95187.50;;;22.36;54.63
15444;BME280;7822;48.146;11.576;2022-09-03T12:49:05;95198.75;;;22.44;53.92
15444;BME280;7822;48.146;11.576;2022-09-03T12:51:59;95192.00;;;22.42;54.17
15444;BME280;7822;48.146;11.576;2022-09-03T12:54:33;95188.09;;;22.31;54.31
15444;BME280;7822;48.146;11.576;2022-09-03T12:57:03;95181.19;;;22.37;54.33
15444;BME280;7822;48.146;11.576;2022-09-03T12:59:34;95184.03;;;22.35;53.74
15444;BME280;7822;48.146;11.576;2022-09-03T13:02:09;95177.88;;;22.22;54.44
15444;BME280;7822;48.146;11.576;2022-09-03T13:04:41;95181.56;;;22.27;54.50
15444;BME280;7822;48.146;11.576;2022-09-03T13:07:13;95171.78;;;22.28;54.71
15444;BME280;7822;48.146;11.576;2022-09-03T13:09:48;95166.47;;;22.21;54.88
15444;BME280;7822;48.146;11.576;2022-09-03T13:12:21;95164.03;;;22.20;54.94
15444;BME280;7822;48.146;11.576;2022-09-03T13:14:50;95165.94;;;22.39;54.02
15444;BME280;7822;48.146;11.576;2022-09-03T13:25:39;95171.53;;;23.11;51.74
15444;BME280;7822;48.146;11.576;2022-09-03T13:28:20;95177.81;;;22.97;52.52
15444;BME280;7822;48.146;11.576;2022-09-03T13:30:57;95192.19;;;22.81;53.02
15444;BME280;7822;48.146;11.576;2022-09-03T13:33:32;95182.47;;;22.88;52.60
15444;BME280;7822;48.146;11.576;2022-09-03T13:36:08;95182.03;;;22.84;52.96
15444;BME280;7822;48.146;11.576;2022-09-03T13:38:44;95180.47;;;23.10;51.98
15444;BME280;7822;48.146;11.576;2022-09-03T13:41:19;95183.38;;;23.28;51.09
15444;BME280;7822;48.146;11.576;2022-09-03T13:44:06;95188.22;;;23.18;51.56
15444;BME280;7822;48.146;11.576;2022-09-03T13:46:42;95181.66;;;23.01;52.78
15444;BME280;7822;48.146;11.576;2022-09-03T13:49:20;95187.75;;;22.88;52.48